ESSA/ARN METAR and TAF weather

Enter ICAO airport designator
Station Type Date Time Source
ESSA METAR 2021/07/28 19:20 UTC NOAA

ESSA 281920Z 28003KT CAVOK 18/18 Q1004 NOSIG


Station Type Date Time Source
ESSA Decoded METAR 2021/07/28 19:20 UTC NOAA

Stockholm / Arlanda, Sweden (ESSA) 59-39N 017-57E 61M
Jul 28, 2021 - 03:20 PM EDT / 2021.07.28 1920 UTC
Wind: from the W (280 degrees) at 3 MPH (3 KT):0
Visibility: greater than 7 mile(s):0
Temperature: 64 F (18 C)
Dew Point: 64 F (18 C)
Relative Humidity: 100%
Pressure (altimeter): 29.65 in. Hg (1004 hPa)
ob: ESSA 281920Z 28003KT CAVOK 18/18 Q1004 NOSIG
cycle: 19

Station Type Date Time Source
ESSA TAF 2021/07/28 18:24 UTC NOAA

TAF ESSA 281730Z 2818/2918 33004KT 9999 BKN030 PROB40 2822/2905 2000 BR

Example: see airport list